Wednesday, January 17, 2018, 8:12 AM EST
Back to Local

KSWF, Newburgh / Stewart

Location: New Windsor, NY, United States Lat: 41.5
Local Time: 8:12 AM EST (13:12 GMT) Lon: -74.1
Time Zone: US/Eastern Elev: 492 ft

Show me the last for .
Show Decoded

2018-01-17 07:45 METAR KSWF 171245Z 00000KT 1/2SM RY09/5000FT -SN BR OVC003 M02/M02 A3027 =
2018-01-17 06:45 METAR KSWF 171145Z 00000KT 1 1/2SM -SN BR OVC003 M02/M02 A3027 =
2018-01-17 05:45 METAR KSWF 171045Z 00000KT 1 1/2SM -SN BR OVC003 M02/M02 A3028 =
2018-01-17 04:45 METAR KSWF 170945Z 00000KT 1 1/2SM -SN BR OVC003 M02/M02 A3028 =
2018-01-17 03:45 METAR KSWF 170845Z 00000KT 1 1/2SM -SN BR OVC003 M02/M02 A3029 =
2018-01-17 02:45 METAR KSWF 170745Z 00000KT 1 1/2SM -SN BR OVC003 M02/M02 A3031 =
2018-01-17 01:45 METAR KSWF 170645Z 00000KT 1 1/2SM -SN BR OVC003 M02/M02 A3031 =
2018-01-17 00:45 METAR KSWF 170545Z 00000KT 1 1/2SM -SN BR OVC003 M02/M02 A3031 =
2018-01-16 23:45 METAR KSWF 170445Z 00000KT 2SM -SN BR OVC010 M02/M02 A3034 =
2018-01-16 22:45 METAR KSWF 170345Z 00000KT 1 1/2SM -SN BR BKN004 OVC010 M02/M02 A3035 =
2018-01-16 21:45 METAR KSWF 170245Z 00000KT 1 1/2SM -SN BR BKN004 OVC010 M02/M02 A3037 =
2018-01-16 20:45 METAR KSWF 170145Z 00000KT 2SM BR BKN004 OVC015 M02/M02 A3038 =
2018-01-16 19:45 METAR KSWF 170045Z 11004KT 2SM -SN BR BKN008 OVC020 M02/M02 A3040 =
2018-01-16 18:45 METAR KSWF 162345Z 11004KT 2SM -SN BR OVC008 M02/M02 A3040 =
2018-01-16 17:45 METAR KSWF 162245Z 11004KT 1 1/2SM -SN BR OVC006 M02/M02 A3040 =
2018-01-16 16:45 METAR KSWF 162145Z 11004KT 1 1/4SM -SN BR OVC005 M02/M02 A3041 =
2018-01-16 15:45 METAR KSWF 162045Z 00000KT 1 1/2SM -SN BR SCT010 OVC020 M02/M02 A3041 =
2018-01-16 14:45 METAR KSWF 161945Z 00000KT 2SM -SN BR OVC030 M02/M03 A3041 =
2018-01-16 13:45 METAR KSWF 161845Z VRB04KT 3SM -SN BR OVC015 M03/M04 A3042 =
2018-01-16 12:45 METAR KSWF 161745Z 00000KT 4SM BR OVC020 M03/M04 A3043 =
2018-01-16 11:45 METAR KSWF 161645Z 00000KT 4SM BR OVC020 M03/M04 A3046 =
2018-01-16 10:45 METAR KSWF 161545Z VRB04KT 4SM BR BKN015 M04/M05 A3049 =
2018-01-16 09:45 METAR KSWF 161445Z VRB04KT 6SM BR FEW010 BKN020 M04/M05 A3049 =
2018-01-16 08:45 METAR KSWF 161345Z 08005KT 5SM -SN BR FEW020 M05/M06 A3048 =

Support USWX by starting your Amazon purchase here.